ADDS METAR Data INFO
IDs: Format: Raw Decoded Include TAF

Data at: 1945 UTC 17 Feb 2018

KCPK 171935Z AUTO 11006KT 4SM HZ BKN029 OVC037 06/02 A3019 RMK AO2 T00640023
KCPK 171915Z AUTO 11006KT 10SM SCT031 BKN037 OVC044 07/01 A3020 RMK AO2 T00730010
KCPK 171855Z AUTO 09006KT 10SM SCT043 OVC048 07/01 A3021 RMK AO2 T00720006
KCPK 171835Z AUTO 07009G14KT 10SM BKN050 OVC065 07/01 A3022 RMK AO2 T00730005
KCPK 171815Z AUTO 08010KT 10SM BKN048 OVC075 07/01 A3025 RMK AO2 T00740010
KCPK 171755Z AUTO 08007KT 10SM SCT028 OVC048 07/02 A3028 RMK AO2 T00730015 10077 20037
KCPK 171735Z AUTO 08009KT 10SM BKN030 BKN048 OVC065 07/02 A3029 RMK AO2 T00740020
KCPK 171715Z AUTO 08006KT 10SM SCT030 SCT046 OVC065 08/01 A3030 RMK AO2 T00770014
KCPK 171655Z AUTO 09009KT 10SM BKN028 OVC065 08/02 A3029 RMK AO2 T00760015
KCPK 171635Z AUTO 05009KT 10SM BKN028 OVC065 07/01 A3032 RMK AO2 T00730014
KCPK 171615Z AUTO 06010KT 10SM BKN028 OVC065 08/02 A3034 RMK AO2 T00750016
KCPK 171555Z AUTO 07009KT 10SM SCT026 BKN065 07/02 A3035 RMK AO2 T00740015
KCPK 171535Z AUTO 08008KT 10SM SCT026 BKN080 07/01 A3035 RMK AO2 T00710013
KCPK 171515Z AUTO 06010KT 10SM SCT026 BKN080 07/01 A3037 RMK AO2 T00690012
KCPK 171455Z AUTO 05008KT 10SM SCT026 SCT080 07/01 A3037 RMK AO2 T00690010
KCPK 171435Z AUTO 05011G15KT 10SM CLR 07/01 A3036 RMK AO2 T00650006
KCPK 171415Z AUTO 08014KT 10SM CLR 06/00 A3036 RMK AO2 T00630001
KCPK 171355Z AUTO 05012KT 10SM CLR 06/00 A3036 RMK AO2 T00610002
KCPK 171335Z AUTO 03007KT 10SM CLR 06/00 A3037 RMK AO2 T00570002
KCPK 171315Z AUTO 03008KT 10SM CLR 05/00 A3037 RMK AO2 T00510000
KCPK 171255Z AUTO 03010KT 10SM CLR 05/00 A3037 RMK AO2 T00480000
KCPK 171235Z AUTO 03006KT 10SM CLR 04/00 A3037 RMK AO2 T00440000
KCPK 171215Z AUTO 02005KT 10SM CLR 04/00 A3036 RMK AO2 T00370002
KCPK 171155Z AUTO 03006KT 10SM CLR 04/00 A3035 RMK AO2 70014 T00370000 10081 20037
KCPK 171135Z AUTO 03004KT 10SM CLR 04/00 A3035 RMK AO2 T00390000
KCPK 171115Z AUTO 01005KT 10SM CLR 04/00 A3035 RMK AO2 T00401005
KCPK 171055Z AUTO 02005KT 10SM CLR 04/00 A3034 RMK AO2 T00401005
KCPK 171035Z AUTO 01008G14KT 10SM CLR 04/M01 A3033 RMK AO2 T00431009
KCPK 171015Z AUTO 02010G14KT 10SM CLR 05/M01 A3032 RMK AO2 T00451011
KCPK 170955Z AUTO 02008KT 10SM CLR 05/M01 A3031 RMK AO2 T00461011
KCPK 170935Z AUTO 02010KT 10SM CLR 05/00 A3030 RMK AO2 T00471003
KCPK 170915Z AUTO 03006KT 10SM CLR 05/00 A3030 RMK AO2 T00501001
KCPK 170855Z AUTO 03005KT 10SM CLR 05/00 A3029 RMK AO2 T00510000
KCPK 170835Z AUTO 01006KT 10SM CLR 05/01 A3027 RMK AO2 T00520007
KCPK 170815Z AUTO 01007KT 10SM CLR 06/01 A3027 RMK AO2 T00550011
KCPK 170755Z AUTO 01005KT 10SM CLR 06/02 A3027 RMK AO2 T00560015
KCPK 170735Z AUTO 01008KT 10SM CLR 06/02 A3027 RMK AO2 T00600016
KCPK 170715Z AUTO 01009KT 10SM SCT110 06/02 A3026 RMK AO2 T00620020
KCPK 170655Z AUTO 01008KT 10SM BKN110 07/02 A3025 RMK AO2 T00700020
KCPK 170635Z AUTO 03009KT 10SM BKN120 08/03 A3024 RMK AO2 T00750025
KCPK 170615Z AUTO 02007KT 10SM SCT065 SCT070 BKN100 08/03 A3023 RMK AO2 T00780027
KCPK 170555Z AUTO 03011G15KT 10SM -RA SCT065 SCT070 OVC100 08/04 A3022 RMK AO2 60009 T00810040 10145 20081
KCPK 170535Z AUTO 03007KT 10SM OVC100 09/06 A3021 RMK AO2 T00880058
KCPK 170515Z AUTO 36007KT 10SM SCT060 OVC100 09/04 A3020 RMK AO2 T00940043
KCPK 170455Z AUTO 36008G16KT 10SM -DZ SCT070 SCT080 OVC100 10/05 A3018 RMK AO2 P0001 T00980051 402580098
KCPK 170435Z AUTO 36006KT 10SM SCT021 SCT055 OVC100 10/07 A3018 RMK AO2 P0001 T01010072
KCPK 170415Z AUTO 01005KT 10SM -RA SCT019 BKN030 OVC100 10/09 A3016 RMK AO2 P0001 T01030092
KCPK 170355Z AUTO 02006KT 10SM -RA SCT032 SCT050 OVC090 11/10 A3015 RMK AO2 T01050098
KCPK 170335Z AUTO 00000KT 10SM -DZ SCT050 SCT075 OVC090 11/10 A3013 RMK AO2 T01070101
KCPK 170315Z AUTO 04004KT 10SM -DZ BKN050 BKN075 OVC090 11/10 A3012 RMK AO2 T01090102
KCPK 170255Z AUTO 03003KT 10SM -RA OVC045 11/11 A3012 RMK AO2 P0004 60008 T01110106
KCPK 170235Z AUTO 04003KT 7SM RA BKN036 OVC042 11/11 A3011 RMK AO2 P0003 T01120107
KCPK 170215Z AUTO 03003KT 10SM -RA OVC034 12/11 A3009 RMK AO2 P0001 T01150108
KCPK 170155Z AUTO 02004KT 10SM -RA OVC032 12/11 A3007 RMK AO2 P0002 T01150108
KCPK 170135Z AUTO 03005KT 10SM -RA OVC028 12/11 A3004 RMK AO2 P0001 T01160108
KCPK 170115Z AUTO 36003KT 10SM -RA OVC022 12/11 A3004 RMK AO2 P0001 T01160105
KCPK 170055Z AUTO 02006G16KT 10SM RA BKN018 BKN024 OVC080 12/11 A3002 RMK AO2 P0002 T01210106
KCPK 170035Z AUTO 00000KT 10SM -RA OVC080 14/14 A2998 RMK AO2 P0001 T01430140
KCPK 170015Z AUTO 00000KT 10SM -RA OVC070 15/14 A2997 RMK AO2 P0001 T01450140
KCPK 162355Z AUTO 00000KT 10SM -RA OVC070 14/14 A2996 RMK AO2 P0001 60005 T01430140 10258 20143
KCPK 162335Z AUTO 26003KT 10SM -RA OVC070 15/14 A2995 RMK AO2 P0001 T01450140
KCPK 162315Z AUTO 00000KT 7SM RA BKN060 OVC070 15/14 A2993 RMK AO2 T01460138
KCPK 162255Z AUTO 31004KT 10SM -RA OVC060 15/14 A2991 RMK AO2 P0003 T01460141
KCPK 162235Z AUTO 29005KT 10SM RA OVC050 15/14 A2992 RMK AO2 P0002 T01470141
KCPK 162215Z AUTO 33003KT 10SM -RA SCT036 BKN044 OVC050 15/14 A2989 RMK AO2 P0002 T01470138
KCPK 162155Z AUTO 32007KT 7SM RA SCT035 OVC042 15/14 A2988 RMK AO2 P0001 T01540135
KCPK 162135Z AUTO 31009G14KT 10SM RA OVC036 17/13 A2988 RMK AO2 T01680126
KCPK 162115Z AUTO 32011G17KT 10SM OVC034 17/13 A2985 RMK AO2 T01710125
KCPK 162055Z AUTO 33008G14KT 10SM OVC030 17/13 A2983 RMK AO2 T01710133
KCPK 162035Z AUTO 01008KT 7SM BKN026 OVC050 17/14 A2982 RMK AO2 T01660135
KCPK 162015Z AUTO 02007G15KT 10SM -RA SCT024 SCT041 OVC048 16/14 A2980 RMK AO2 T01610135
KCPK 161955Z AUTO 35017G22KT 7SM -RA OVC046 18/14 A2979 RMK AO2 T01820138
KCPK 161935Z AUTO 25009KT 5SM HZ BKN050 BKN055 OVC065 25/16 A2973 RMK AO2 T02470155
KCPK 161915Z AUTO 23012G17KT 10SM BKN050 BKN060 OVC085 25/16 A2972 RMK AO2 T02510155
KCPK 161855Z AUTO 25014G19KT 7SM BKN050 BKN065 25/15 A2972 RMK AO2 T02520154
KCPK 161835Z AUTO 26011G18KT 5SM HZ BKN047 BKN055 25/16 A2973 RMK AO2 T02540155
KCPK 161815Z AUTO 25014KT 7SM SCT043 BKN049 BKN055 25/16 A2972 RMK AO2 T02500157
KCPK 161755Z AUTO 25009G14KT 5SM HZ SCT043 SCT049 25/16 A2974 RMK AO2 T02500159 10250 20179
KCPK 161735Z AUTO 24013G16KT 5SM HZ SCT042 25/16 A2974 RMK AO2 T02470160
KCPK 161715Z AUTO 24008G18KT 10SM SCT038 24/16 A2976 RMK AO2 T02400157
KCPK 161655Z AUTO 24012G16KT 7SM SCT038 24/16 A2977 RMK AO2 T02380159
KCPK 161635Z AUTO 25010KT 10SM CLR 23/16 A2978 RMK AO2 T02340160
KCPK 161615Z AUTO 23011G19KT 7SM CLR 22/16 A2979 RMK AO2 T02230158
KCPK 161555Z AUTO 24013G19KT 7SM CLR 22/16 A2979 RMK AO2 T02170157
KCPK 161535Z AUTO 23010G18KT 7SM CLR 22/16 A2979 RMK AO2 T02160158
KCPK 161515Z AUTO 23013G22KT 7SM CLR 22/16 A2979 RMK AO2 T02150158
KCPK 161455Z AUTO 23010G17KT 7SM CLR 20/16 A2980 RMK AO2 T02040156
KCPK 161435Z AUTO 22008G17KT 7SM CLR 20/15 A2980 RMK AO2 T01960153
KCPK 161415Z AUTO 22011G17KT 7SM CLR 20/15 A2980 RMK AO2 T01950152
KCPK 161355Z AUTO 22010G21KT 7SM CLR 20/15 A2980 RMK AO2 T01960152
KCPK 161335Z AUTO 22014G20KT 7SM CLR 19/15 A2980 RMK AO2 T01940151
KCPK 161315Z AUTO 22012G19KT 5SM HZ CLR 20/15 A2980 RMK AO2 T01950152
KCPK 161255Z AUTO 22010G18KT 7SM CLR 19/15 A2980 RMK AO2 T01890150
KCPK 161235Z AUTO 23012G18KT 5SM HZ CLR 18/15 A2980 RMK AO2 T01830147
KCPK 161215Z AUTO 22010G17KT 5SM HZ CLR 18/15 A2979 RMK AO2 T01810145
KCPK 161155Z AUTO 22012G16KT 7SM CLR 18/14 A2979 RMK AO2 T01790143 10196 20179
KCPK 161135Z AUTO 22011G19KT 7SM CLR 18/14 A2978 RMK AO2 T01810142
KCPK 161115Z AUTO 22009G16KT 7SM CLR 18/14 A2978 RMK AO2 T01810141
KCPK 161055Z AUTO 22012G17KT 7SM CLR 18/14 A2979 RMK AO2 T01800140
KCPK 161035Z AUTO 22010G16KT 7SM CLR 18/14 A2979 RMK AO2 T01800141
KCPK 161015Z AUTO 23010G15KT 7SM CLR 18/14 A2981 RMK AO2 T01810141
KCPK 160955Z AUTO 22011G16KT 7SM CLR 18/14 A2981 RMK AO2 T01820142
KCPK 160935Z AUTO 23009G15KT 5SM HZ CLR 18/14 A2981 RMK AO2 T01840144
KCPK 160915Z AUTO 23010KT 7SM CLR 18/15 A2981 RMK AO2 T01830145
KCPK 160855Z AUTO 23010G14KT 7SM CLR 19/15 A2981 RMK AO2 T01850146
KCPK 160835Z AUTO 23013G16KT 7SM CLR 19/15 A2981 RMK AO2 T01870147
KCPK 160815Z AUTO 23011G19KT 7SM CLR 19/15 A2980 RMK AO2 T01900150
KCPK 160755Z AUTO 23010G16KT 10SM CLR 19/15 A2981 RMK AO2 T01890150